• Join FlightAware (Why Join?)
  • Login
  • US Flag 
12:37PM EDT


 

Airport Tracker/Info


-or-


 

Live Flight TrackerFlight Track Log ✈ SWA484 ✈ 29-Apr-2013 ✈ KMCO - KBDL

Flight Track Log - Related Links

Times and Time Zones

All times are in EDT time to prevent confusion due to time zone crossing. See the SWA484 flight status page for this flight to view local times or setup timezone preferences in your user account.

Time Position Orientation Groundspeed Altitude Reporting Facility
EDT Latitude Longitude Course Direction KTS MPH feet Rate Location/Type
09:29AM 28.4167 -81.3000 150° Southeast 157 181 500  Level Orlando TRACON
09:30AM 28.3667 -81.2667 150° Southeast 199 229 2,800 2,400 Climbing Orlando TRACON
09:31AM 28.3500 -81.2167 111° Southeast 232 267 5,400 3,120 Climbing Orlando TRACON
09:32AM 28.3833 -81.1667 53° Northeast 256 295 8,800 2,520 Climbing Orlando TRACON
09:34AM 28.5208 -81.2056 346° North 324 373 12,000 2,520 Climbing Jacksonville Center
09:35AM 28.6214 -81.2347 346° North 351 404 15,400 3,180 Climbing Jacksonville Center
09:36AM 28.7219 -81.2686 344° North 365 420 18,400 2,880 Climbing Jacksonville Center
09:37AM 28.8289 -81.3047 344° North 383 441 21,200 2,520 Climbing Jacksonville Center
09:38AM 28.9378 -81.3408 344° North 395 455 23,400 2,220 Climbing Jacksonville Center
09:39AM 29.0508 -81.3747 345° North 408 470 25,700 2,160 Climbing Jacksonville Center
09:40AM 29.1700 -81.3967 351° North 415 478 27,800 1,980 Climbing Jacksonville Center
09:41AM 29.2956 -81.4114 354° North 434 499 29,700 1,740 Climbing Jacksonville Center
09:42AM 29.4147 -81.4264 354° North 446 513 31,300 1,680 Climbing Jacksonville Center
09:43AM 29.5400 -81.4364 356° North 446 513 33,100 1,560 Climbing Jacksonville Center
09:44AM 29.6653 -81.4464 356° North 446 513 34,500 1,260 Climbing Jacksonville Center
09:45AM 29.7908 -81.4589 355° North 446 513 35,700 1,140 Climbing Jacksonville Center
09:46AM 29.9183 -81.4717 355° North 446 513 36,800 600 Climbing Jacksonville Center
09:47AM 30.0458 -81.4817 356° North 446 513 37,000 60 Climbing Jacksonville Center
09:48AM 30.1753 -81.4942 355° North 457 526 37,000 180 Level Jacksonville Center
09:49AM 30.3047 -81.4972 359° North 462 532 37,400 480 Climbing Jacksonville Center
09:50AM 30.4258 -81.4786 North 467 537 38,000 720 Climbing Jacksonville Center
09:51AM 30.5569 -81.4572 North 472 543 38,900 480 Climbing Jacksonville Center
09:52AM 30.6861 -81.4358 North 472 543 39,000  Climbing Jacksonville Center
09:53AM 30.8197 -81.4169 North 472 543 39,000  Level Jacksonville Center
09:54AM 30.9508 -81.3956 North 472 543 39,000  Level Jacksonville Center
09:55AM 31.0800 -81.3742 North 472 543 39,000  Level Jacksonville Center
09:56AM 31.2094 -81.3550 North 467 537 39,000  Level Jacksonville Center
09:57AM 31.3467 -81.3283 North 455 524 39,000  Level Jacksonville Center
09:58AM 31.4739 -81.2969 12° North 453 521 39,000  Level Jacksonville Center
09:59AM 31.5772 -81.2222 32° Northeast 462 532 39,000  Level Jacksonville Center
10:00AM 31.7011 -81.1247 34° Northeast 480 552 39,000  Level Jacksonville Center
10:01AM 31.8086 -81.0394 34° Northeast 480 552 39,000  Level Jacksonville Center
10:02AM 31.9219 -80.9492 34° Northeast 480 552 39,000  Level Jacksonville Center
10:03AM 32.0356 -80.8608 33° Northeast 480 552 39,000  Level Jacksonville Center
10:04AM 32.1364 -80.7828 33° Northeast 475 547 39,000  Level Jacksonville Center
10:05AM 32.2433 -80.6917 36° Northeast 475 547 39,000  Level Jacksonville Center
10:06AM 32.3567 -80.6031 33° Northeast 475 547 39,000  Level Jacksonville Center
10:07AM 32.4697 -80.5114 34° Northeast 475 547 39,000  Level Jacksonville Center
10:08AM 32.5828 -80.4197 34° Northeast 481 554 39,000  Level Jacksonville Center
10:09AM 32.6917 -80.3303 35° Northeast 481 554 39,000  Level Jacksonville Center
10:10AM 32.8025 -80.2408 34° Northeast 481 554 39,000  Level Jacksonville Center
10:11AM 32.9114 -80.1483 35° Northeast 481 554 39,000  Level Jacksonville Center
10:12AM 33.0239 -80.0558 35° Northeast 491 565 39,000  Level Jacksonville Center
10:13AM 33.1347 -79.9681 34° Northeast 486 559 39,000  Level Jacksonville Center
10:14AM 33.2453 -79.8800 34° Northeast 476 548 39,000  Level Jacksonville Center
10:15AM 33.3456 -79.7969 35° Northeast 482 555 39,000  Level Jacksonville Center
10:16AM 33.4786 -79.6878 34° Northeast 482 555 39,000  Level Jacksonville Center
10:17AM 33.5867 -79.5967 35° Northeast 482 555 39,000  Level Jacksonville Center
10:18AM 33.6989 -79.5000 36° Northeast 482 555 39,000  Level Jacksonville Center
10:19AM 33.8092 -79.4108 34° Northeast 482 555 39,000  Level Jacksonville Center
10:20AM 33.9192 -79.3164 35° Northeast 476 548 39,000  Level Jacksonville Center
10:22AM 34.1917 -79.0917 34° Northeast 486 559 39,000  Level Washington Center
10:23AM 34.3050 -78.9958 35° Northeast 486 559 39,000  Level Washington Center
10:24AM 34.4200 -78.9100 32° Northeast 481 554 39,000  Level Washington Center
10:25AM 34.5136 -78.8408 31° Northeast 481 554 39,000  Level Washington Center
10:26AM 34.6394 -78.7397 33° Northeast 488 562 39,000  Level Washington Center
10:27AM 34.7650 -78.6436 32° Northeast 487 560 39,000  Level Washington Center
10:28AM 34.8650 -78.5689 32° Northeast 487 560 39,000  Level Washington Center
10:29AM 34.9778 -78.4792 33° Northeast 481 554 39,000  Level Washington Center
10:30AM 35.0906 -78.3944 32° Northeast 481 554 39,000  Level Washington Center
10:31AM 35.2050 -78.3069 32° Northeast 481 554 39,000  Level Washington Center
10:32AM 35.3178 -78.2164 33° Northeast 481 554 39,000  Level Washington Center
10:33AM 35.4322 -78.1311 31° Northeast 487 560 39,000  Level Washington Center
10:34AM 35.5575 -78.0303 33° Northeast 487 560 39,000  Level Washington Center
10:35AM 35.6697 -77.9442 32° Northeast 487 560 39,000  Level Washington Center
10:36AM 35.7861 -77.8556 32° Northeast 492 566 39,000  Level Washington Center
10:37AM 35.8986 -77.7664 33° Northeast 486 559 39,000  Level Washington Center
10:38AM 36.0108 -77.6744 34° Northeast 486 559 39,000  Level Washington Center
10:39AM 36.1189 -77.5744 37° Northeast 486 559 39,000  Level Washington Center
10:40AM 36.2269 -77.4742 37° Northeast 486 559 39,000  Level Washington Center
10:41AM 36.3178 -77.3861 38° Northeast 476 548 39,000  Level Washington Center
10:42AM 36.4342 -77.2753 37° Northeast 470 541 39,000  Level Washington Center
10:43AM 36.5378 -77.1792 37° Northeast 470 541 39,000  Level Washington Center
10:44AM 36.6456 -77.0778 37° Northeast 470 541 39,000  Level Washington Center
10:45AM 36.7467 -76.9814 37° Northeast 470 541 39,000  Level Washington Center
10:46AM 36.8542 -76.8844 36° Northeast 470 541 39,000  Level Washington Center
10:47AM 36.9617 -76.7875 36° Northeast 470 541 39,000  Level Washington Center
10:48AM 37.0669 -76.6931 36° Northeast 470 541 39,000  Level Washington Center
10:49AM 37.1742 -76.5928 37° Northeast 470 541 39,000  Level Washington Center
10:50AM 37.2833 -76.4975 35° Northeast 470 541 39,000  Level Washington Center
10:51AM 37.3800 -76.4100 36° Northeast 476 548 39,000  Level Washington Center
10:52AM 37.4869 -76.3142 35° Northeast 476 548 39,000  Level Washington Center
10:53AM 37.5958 -76.2183 35° Northeast 476 548 39,000  Level Washington Center
10:54AM 37.7089 -76.1272 33° Northeast 476 548 39,000  Level Washington Center
10:55AM 37.8136 -76.0308 36° Northeast 471 542 39,000  Level Washington Center
10:56AM 37.9244 -75.9339 35° Northeast 471 542 39,000  Level Washington Center
10:57AM 38.0331 -75.8394 34° Northeast 471 542 39,000  Level Washington Center
10:58AM 38.1439 -75.7422 35° Northeast 471 542 39,000  Level Washington Center
10:59AM 38.2522 -75.6500 34° Northeast 471 542 39,000  Level Washington Center
11:00AM 38.3608 -75.5519 35° Northeast 471 542 39,000  Level Washington Center
11:01AM 38.4692 -75.4592 34° Northeast 471 542 39,000  Level Washington Center
11:02AM 38.5775 -75.3658 34° Northeast 471 542 39,000  Level Washington Center
11:03AM 38.6836 -75.2644 37° Northeast 471 542 39,000  Level Washington Center
11:04AM 38.7936 -75.1708 34° Northeast 471 542 39,000  Level Washington Center
11:05AM 38.9017 -75.0714 36° Northeast 471 542 39,000  Level Washington Center
11:06AM 39.0075 -74.9744 35° Northeast 471 542 39,000  Level Washington Center
11:07AM 39.1153 -74.8800 34° Northeast 471 542 39,000  Level Washington Center
11:08AM 39.2189 -74.7800 37° Northeast 471 542 39,000  Level Washington Center
11:09AM 39.3267 -74.6847 34° Northeast 471 542 39,000  Level Washington Center
11:11AM 39.5036 -74.5214 35° Northeast 460 529 39,000 -600 Level New York Center
11:12AM 39.5981 -74.4322 36° Northeast 460 529 37,500 -2,280 Descending New York Center
11:13AM 39.7161 -74.3250 35° Northeast 472 543 34,400 -3,060 Descending New York Center
11:14AM 39.8256 -74.2225 36° Northeast 477 549 31,400 -2,760 Descending New York Center
11:15AM 39.9347 -74.1197 36° Northeast 482 555 28,900 -2,460 Descending New York Center
11:16AM 40.0419 -74.0164 36° Northeast 482 555 26,400 -2,040 Descending New York Center
11:17AM 40.1508 -73.9183 35° Northeast 482 555 25,000 -720 Descending New York Center
11:18AM 40.2472 -73.8247 37° Northeast 456 525 25,000  Level New York Center
11:19AM 40.3475 -73.7339 35° Northeast 444 511 25,000 -720 Level New York Center
11:21AM 40.4833 -73.5997 37° Northeast 421 484 23,100 -1,680 Descending Boston Center
11:22AM 40.5950 -73.4922 36° Northeast 416 479 20,400 -2,100 Descending Boston Center
11:23AM 40.6853 -73.4117 34° Northeast 411 473 19,000 -720 Descending Boston Center
11:24AM 40.7714 -73.3281 36° Northeast 399 459 19,000  Level Boston Center
11:25AM 40.8533 -73.2358 40° Northeast 389 448 19,000 -360 Level Boston Center
11:26AM 40.9331 -73.1433 41° Northeast 378 435 18,300 -720 Descending Boston Center
11:27AM 41.0128 -73.0508 41° Northeast 378 435 17,600 -900 Descending Boston Center
11:28AM 41.0906 -72.9606 41° Northeast 378 435 16,600 -1,440 Descending Boston Center
11:29AM 41.1639 -72.8675 44° Northeast 373 429 14,800 -2,040 Descending Boston Center
11:29AM 41.2244 -72.7961 42° Northeast 362 417 13,100 -2,100 Descending Boston Center
11:30AM 41.2411 -72.7797 36° Northeast 367 422 12,700 -2,040 Descending Boston Center
11:30AM 41.2933 -72.7192 41° Northeast 355 409 11,300 -1,740 Descending Boston Center
11:31AM 41.3267 -72.7056 17° North 344 396 11,000 -420 Descending Boston Center
11:32AM 41.4122 -72.6781 14° North 322 371 10,800 -660 Descending Boston Center
11:32AM 41.4706 -72.6589 14° North 329 379 10,000 -840 Descending Boston Center
11:33AM 41.5042 -72.6508 10° North 327 376 10,000  Level Boston Center
11:33AM 41.5728 -72.6314 12° North 330 380 10,000 -120 Level Boston Center
11:34AM 41.6583 -72.6069 12° North 313 360 9,800 -900 Descending Boston Center
11:35AM 41.7417 -72.5819 13° North 297 342 8,200 -1,560 Descending Boston Center
11:36AM 41.8208 -72.5600 12° North 297 342 6,700 -1,320 Descending Boston Center
11:37AM 41.9003 -72.5350 13° North 289 333 5,600 -900 Descending Boston Center
11:38AM 41.9669 -72.5017 20° North 253 291 4,900 -900 Descending Boston Center
11:39AM 42.0294 -72.5044 358° North 237 273 3,800 -960 Descending Boston Center
11:40AM 42.0314 -72.5631 273° West 195 224 3,000 -1,020 Descending Boston Center
11:41AM 42.0064 -72.5994 227° Southwest 148 170 1,900 -960 Descending Boston Center
11:42AM 41.9792 -72.6328 222° Southwest 125 144 1,100 -720 Descending Boston Center
11:44AM 41.9564 -72.6661 227° Southwest 133 153 400 -660 Descending Boston Center